This is the latest recevied weather packets stored in our database for station/object KO6HRZ. If no packets are shown the sender has not sent any weather packets the latest 10 day(s).
| Time | Temp. | Humidity | Pressure | Rain* | Wind** | Luminosity | Snow |
|---|---|---|---|---|---|---|---|
| 1777419429 | 26.11° C | 40% | 1018 hPa | 0 mm | - | 293 W/m² | - |
| 1777418828 | 25° C | 43% | 1018 hPa | 0 mm | - | 221 W/m² | - |
| 1777418228 | 26.11° C | 42% | 1018.3 hPa | 0 mm | - | 218 W/m² | - |
| 1777417625 | 26.67° C | 41% | 1018 hPa | 0 mm | - | 221 W/m² | - |
| 1777417024 | 26.11° C | 43% | 1018.1 hPa | 0 mm | - | 704 W/m² | - |
| 1777416420 | 26.11° C | 41% | 1018.4 hPa | 0 mm | - | 741 W/m² | - |
| 1777415816 | 25.56° C | 43% | 1018.4 hPa | 0 mm | - | 758 W/m² | - |
| 1777415214 | 26.67° C | 42% | 1018.4 hPa | 0 mm | - | 752 W/m² | - |
| 1777414608 | 26.11° C | 41% | 1018.5 hPa | 0 mm | - | 776 W/m² | - |
| 1777414004 | 26.11° C | 42% | 1018.7 hPa | 0 mm | - | 826 W/m² | - |
| 1777413402 | 25.56° C | 42% | 1018.9 hPa | 0 mm | - | 792 W/m² | - |
| 1777412798 | 25° C | 44% | 1019 hPa | 0 mm | - | 792 W/m² | - |
| 1777412196 | 25.56° C | 43% | 1019.2 hPa | 0 mm | - | 810 W/m² | - |
| 1777411591 | 25° C | 45% | 1019.1 hPa | 0 mm | - | 820 W/m² | - |
| 1777410985 | 23.89° C | 50% | 1019.2 hPa | 0 mm | - | 834 W/m² | - |
| 1777410381 | 24.44° C | 46% | 1019.4 hPa | 0 mm | - | 831 W/m² | - |
| 1777409781 | 23.33° C | 47% | 1019.4 hPa | 0 mm | - | 839 W/m² | - |
| 1777409178 | 24.44° C | 45% | 1019.6 hPa | 0 mm | - | 838 W/m² | - |
| 1777408576 | 23.89° C | 47% | 1019.3 hPa | 0 mm | - | 868 W/m² | - |
| 1777407971 | 24.44° C | 46% | 1019.6 hPa | 0 mm | - | 850 W/m² | - |
| 1777407370 | 22.78° C | 49% | 1019.7 hPa | 0 mm | - | 853 W/m² | - |
| 1777406766 | 23.33° C | 47% | 1019.7 hPa | 0 mm | - | 453 W/m² | - |
| 1777406161 | 22.78° C | 51% | 1019.7 hPa | 0 mm | - | 842 W/m² | - |
| 1777405559 | 23.89° C | 48% | 1020 hPa | 0 mm | - | 836 W/m² | - |
| 1777404955 | 23.33° C | 49% | 1019.9 hPa | 0 mm | - | 827 W/m² | - |
* Rain latest hour (hover to see other rain measurements)
** Current wind speed in m/s (hover to see current wind gust speed)